Time;durP1;ratioP1;P1;durP2;ratioP2;P2;SDS_P1;SDS_P2;PMS_P1;PMS_P2;Temp;Humidity;BMP_temperature;BMP_pressure;BME280_temperature;BME280_humidity;BME280_pressure;Samples;Min_cycle;Max_cycle;Signal;HPM_P1;HPM_P2
2022/05/10 00:01:08;;;;;;;4.47;1.02;;;;;;;;;;4998897;28;20049;-86
2022/05/10 00:03:36;;;;;;;2.75;1.27;;;;;;;;;;5030723;28;20497;-84
2022/05/10 00:06:08;;;;;;;2.35;1.20;;;;;;;;;;4991574;28;20548;-84
2022/05/10 00:08:38;;;;;;;3.00;0.80;;;;;;;;;;4997901;28;20052;-83
2022/05/10 00:11:05;;;;;;;2.13;0.88;;;;;;;;;;5014117;28;20049;-84
2022/05/10 00:13:32;;;;;;;3.88;1.40;;;;;;;;;;5031655;28;20494;-84
2022/05/10 00:16:00;;;;;;;3.78;1.20;;;;;;;;;;4998503;28;20041;-83
2022/05/10 00:18:29;;;;;;;3.20;1.13;;;;;;;;;;4995012;28;20538;-85
2022/05/10 00:20:59;;;;;;;3.15;1.30;;;;;;;;;;5010472;28;20045;-85
2022/05/10 00:23:27;;;;;;;4.40;1.30;;;;;;;;;;4996178;28;20490;-84
2022/05/10 00:25:54;;;;;;;4.43;1.67;;;;;;;;;;4997399;28;20045;-84
2022/05/10 00:28:21;;;;;;;4.75;1.85;;;;;;;;;;4999011;28;20478;-85
2022/05/10 00:30:49;;;;;;;3.97;1.95;;;;;;;;;;4998673;28;20103;-85
2022/05/10 00:33:19;;;;;;;3.88;1.48;;;;;;;;;;5031163;28;20413;-84
2022/05/10 00:35:47;;;;;;;4.70;1.55;;;;;;;;;;5045998;28;20045;-84
2022/05/10 00:38:16;;;;;;;4.13;1.60;;;;;;;;;;4999322;28;20081;-84
2022/05/10 00:40:43;;;;;;;4.47;1.75;;;;;;;;;;4982500;28;20095;-85
2022/05/10 00:43:26;;;;;;;3.50;1.27;;;;;;;;;;4998391;28;20494;-85
2022/05/10 00:46:00;;;;;;;3.45;1.48;;;;;;;;;;4979345;28;20042;-85
2022/05/10 00:48:46;;;;;;;4.88;1.73;;;;;;;;;;4987739;28;20042;-84
2022/05/10 00:51:34;;;;;;;4.53;1.40;;;;;;;;;;5004145;28;20048;-85
2022/05/10 00:54:09;;;;;;;5.03;2.15;;;;;;;;;;4999892;28;20056;-85
2022/05/10 00:56:40;;;;;;;3.35;1.30;;;;;;;;;;5036571;28;20061;-85
2022/05/10 00:59:29;;;;;;;3.63;1.60;;;;;;;;;;5004622;28;20117;-85
2022/05/10 01:02:07;;;;;;;3.95;1.40;;;;;;;;;;5042776;28;20049;-85
2022/05/10 01:04:37;;;;;;;4.47;1.75;;;;;;;;;;5037185;28;20074;-84
2022/05/10 01:07:19;;;;;;;3.72;1.60;;;;;;;;;;4996372;28;20049;-85
2022/05/10 01:10:02;;;;;;;5.65;2.03;;;;;;;;;;5019001;28;20041;-85
2022/05/10 01:12:39;;;;;;;3.58;1.42;;;;;;;;;;5035151;28;20590;-85
2022/05/10 01:15:07;;;;;;;3.60;1.60;;;;;;;;;;5002707;28;20049;-85
2022/05/10 01:17:35;;;;;;;3.15;1.55;;;;;;;;;;5002401;28;20128;-85
2022/05/10 01:20:04;;;;;;;4.32;1.65;;;;;;;;;;5002108;28;20088;-85
2022/05/10 01:22:41;;;;;;;4.15;1.70;;;;;;;;;;5029343;28;20054;-84
2022/05/10 01:25:21;;;;;;;3.30;1.83;;;;;;;;;;5002204;28;20057;-85
2022/05/10 01:28:07;;;;;;;3.75;1.65;;;;;;;;;;5001064;28;20050;-85
2022/05/10 01:30:35;;;;;;;4.18;1.90;;;;;;;;;;4996063;28;20049;-85
2022/05/10 01:36:06;;;;;;;4.50;1.83;;;;;;;;;;5030345;28;20533;-85
2022/05/10 01:38:52;;;;;;;4.07;1.95;;;;;;;;;;5027568;28;20042;-84
2022/05/10 01:41:19;;;;;;;3.00;1.77;;;;;;;;;;5002955;28;20054;-85
2022/05/10 01:44:07;;;;;;;3.50;1.95;;;;;;;;;;4999066;28;20077;-85
2022/05/10 01:46:35;;;;;;;4.85;2.00;;;;;;;;;;5006220;28;20092;-85
2022/05/10 01:49:12;;;;;;;4.18;2.10;;;;;;;;;;4991031;28;20085;-85
2022/05/10 01:51:45;;;;;;;5.40;2.05;;;;;;;;;;5001599;28;20045;-85
2022/05/10 01:54:32;;;;;;;3.88;2.05;;;;;;;;;;5001388;28;20057;-85
2022/05/10 01:57:00;;;;;;;4.47;2.38;;;;;;;;;;5022365;28;20045;-85
2022/05/10 01:59:27;;;;;;;4.55;2.17;;;;;;;;;;4998278;28;20104;-85
2022/05/10 02:01:55;;;;;;;4.18;2.47;;;;;;;;;;4996837;28;20140;-85
2022/05/10 02:04:26;;;;;;;3.63;2.10;;;;;;;;;;5000049;28;20045;-84
2022/05/10 02:06:55;;;;;;;4.57;2.08;;;;;;;;;;4994183;28;20049;-84
2022/05/10 02:09:31;;;;;;;4.28;2.35;;;;;;;;;;4995737;28;20203;-84
2022/05/10 02:12:07;;;;;;;4.68;2.45;;;;;;;;;;4994415;28;20045;-84
2022/05/10 02:14:41;;;;;;;5.40;2.97;;;;;;;;;;4995562;28;20053;-85
2022/05/10 02:17:13;;;;;;;5.35;2.47;;;;;;;;;;5000807;28;20046;-84
2022/05/10 02:19:50;;;;;;;3.40;2.03;;;;;;;;;;5000900;28;20052;-84
2022/05/10 02:22:30;;;;;;;3.22;2.00;;;;;;;;;;5018154;28;20417;-84
2022/05/10 02:24:59;;;;;;;3.55;2.17;;;;;;;;;;5006016;28;20049;-84
2022/05/10 02:27:33;;;;;;;6.22;2.30;;;;;;;;;;4998413;28;20072;-84
2022/05/10 02:30:04;;;;;;;3.75;2.05;;;;;;;;;;5000786;28;20038;-85
2022/05/10 02:35:23;;;;;;;4.18;1.92;;;;;;;;;;5016797;28;20058;-85
2022/05/10 02:37:51;;;;;;;4.90;2.17;;;;;;;;;;4984448;28;20056;-85
2022/05/10 02:40:18;;;;;;;3.83;2.35;;;;;;;;;;4984531;28;20050;-85
2022/05/10 02:42:48;;;;;;;5.10;2.50;;;;;;;;;;5016731;28;20071;-85
2022/05/10 02:45:18;;;;;;;3.58;2.13;;;;;;;;;;5000689;28;20045;-84
2022/05/10 02:47:47;;;;;;;4.18;2.10;;;;;;;;;;5001209;28;20053;-85
2022/05/10 02:50:20;;;;;;;4.47;1.75;;;;;;;;;;5000235;28;20053;-85
2022/05/10 02:52:47;;;;;;;2.35;1.55;;;;;;;;;;4992090;28;20049;-85
2022/05/10 02:55:19;;;;;;;3.70;1.77;;;;;;;;;;5000006;28;20052;-84
2022/05/10 02:57:48;;;;;;;7.32;2.00;;;;;;;;;;5034266;28;20129;-84
2022/05/10 03:00:16;;;;;;;4.95;2.13;;;;;;;;;;5000511;28;20045;-85
2022/05/10 03:02:46;;;;;;;3.60;2.28;;;;;;;;;;4984141;28;20053;-85
2022/05/10 03:05:14;;;;;;;3.55;1.92;;;;;;;;;;4999800;28;20057;-85
2022/05/10 03:07:41;;;;;;;5.22;2.10;;;;;;;;;;5016422;28;20437;-85
2022/05/10 03:10:09;;;;;;;3.08;1.73;;;;;;;;;;4999997;28;20045;-85
2022/05/10 03:12:36;;;;;;;7.05;2.00;;;;;;;;;;4996506;28;20069;-85
2022/05/10 03:15:05;;;;;;;4.18;2.08;;;;;;;;;;5008737;28;20117;-85
2022/05/10 03:17:35;;;;;;;3.92;1.90;;;;;;;;;;5015329;28;20128;-85
2022/05/10 03:20:03;;;;;;;3.75;2.30;;;;;;;;;;4991249;28;20060;-85
2022/05/10 03:22:31;;;;;;;5.57;2.15;;;;;;;;;;4988144;28;20508;-84
2022/05/10 03:24:59;;;;;;;4.22;2.25;;;;;;;;;;4992202;28;20046;-84
2022/05/10 03:27:29;;;;;;;3.08;1.90;;;;;;;;;;4984364;28;20105;-84
2022/05/10 03:29:56;;;;;;;3.30;1.73;;;;;;;;;;5015817;28;20037;-84
2022/05/10 03:32:23;;;;;;;5.05;2.38;;;;;;;;;;4997285;28;20461;-84
2022/05/10 03:34:59;;;;;;;4.20;2.50;;;;;;;;;;5010392;28;20042;-85
2022/05/10 03:37:28;;;;;;;5.15;2.25;;;;;;;;;;4998303;28;20133;-84
2022/05/10 03:39:56;;;;;;;4.70;2.80;;;;;;;;;;5015007;28;20045;-84
2022/05/10 03:42:23;;;;;;;5.05;2.88;;;;;;;;;;4998790;28;20053;-84
2022/05/10 03:44:54;;;;;;;4.93;2.55;;;;;;;;;;5015020;28;20140;-85
2022/05/10 03:47:26;;;;;;;4.28;2.47;;;;;;;;;;5031941;28;20052;-85
2022/05/10 03:49:55;;;;;;;;;;;;;;;;;;4995838;28;20034;-84
2022/05/10 03:52:22;;;;;;;3.58;2.05;;;;;;;;;;5015105;28;20344;-84
2022/05/10 03:54:50;;;;;;;5.82;2.67;;;;;;;;;;4985698;28;20391;-85
2022/05/10 03:57:20;;;;;;;4.80;3.25;;;;;;;;;;5015780;28;20104;-85
2022/05/10 03:59:47;;;;;;;4.97;3.20;;;;;;;;;;5015368;28;20033;-84
2022/05/10 04:02:16;;;;;;;6.68;3.13;;;;;;;;;;5015645;28;20030;-85
2022/05/10 04:04:43;;;;;;;5.07;2.70;;;;;;;;;;4999372;28;20498;-85
2022/05/10 04:07:11;;;;;;;5.65;3.10;;;;;;;;;;5015224;28;20049;-85
2022/05/10 04:09:38;;;;;;;4.53;2.63;;;;;;;;;;5031664;28;20037;-84
2022/05/10 04:12:06;;;;;;;5.05;2.70;;;;;;;;;;4982970;28;20042;-85
2022/05/10 04:14:33;;;;;;;4.15;2.30;;;;;;;;;;4999316;28;20056;-85
2022/05/10 04:17:01;;;;;;;5.88;3.38;;;;;;;;;;4996350;28;20459;-84
2022/05/10 04:19:28;;;;;;;5.22;2.75;;;;;;;;;;4979600;28;20104;-84
2022/05/10 04:21:56;;;;;;;5.78;3.05;;;;;;;;;;4994817;28;20124;-85
2022/05/10 04:24:23;;;;;;;6.68;3.10;;;;;;;;;;4980225;28;20041;-85
2022/05/10 04:26:51;;;;;;;5.35;2.85;;;;;;;;;;4998194;28;20567;-85
2022/05/10 04:29:18;;;;;;;5.55;3.78;;;;;;;;;;4998481;28;20044;-85
2022/05/10 04:31:46;;;;;;;6.13;2.83;;;;;;;;;;5013325;28;20045;-85
2022/05/10 04:34:13;;;;;;;5.15;3.40;;;;;;;;;;4993872;28;20065;-85
2022/05/10 04:36:41;;;;;;;5.78;3.30;;;;;;;;;;4998517;28;20410;-85
2022/05/10 04:39:08;;;;;;;5.68;3.58;;;;;;;;;;5006791;28;20517;-85
2022/05/10 04:41:37;;;;;;;6.15;3.40;;;;;;;;;;5003425;28;20049;-85
2022/05/10 04:44:08;;;;;;;5.97;3.40;;;;;;;;;;5014913;28;20151;-85
2022/05/10 04:46:37;;;;;;;4.88;3.05;;;;;;;;;;4998417;28;20037;-85
2022/05/10 04:49:05;;;;;;;5.57;3.42;;;;;;;;;;4992496;28;20127;-85
2022/05/10 04:51:35;;;;;;;8.40;4.07;;;;;;;;;;4998582;28;20049;-85
2022/05/10 04:54:03;;;;;;;6.57;3.88;;;;;;;;;;4987788;28;20049;-85
2022/05/10 04:56:31;;;;;;;5.00;3.70;;;;;;;;;;4977495;28;20057;-85
2022/05/10 04:58:58;;;;;;;6.25;4.03;;;;;;;;;;4998657;28;20111;-85
2022/05/10 05:01:27;;;;;;;6.88;3.38;;;;;;;;;;5011435;28;20494;-85
2022/05/10 05:03:55;;;;;;;6.40;3.33;;;;;;;;;;4996532;28;20088;-85
2022/05/10 05:06:24;;;;;;;7.35;3.90;;;;;;;;;;4998449;28;20060;-85
2022/05/10 05:08:52;;;;;;;7.13;4.10;;;;;;;;;;5014473;28;20053;-86
2022/05/10 05:11:19;;;;;;;8.45;4.30;;;;;;;;;;4998307;28;20041;-85
2022/05/10 05:13:47;;;;;;;7.78;4.50;;;;;;;;;;4998678;28;20053;-85
2022/05/10 05:16:17;;;;;;;7.22;3.90;;;;;;;;;;5014932;28;20103;-85
2022/05/10 05:18:45;;;;;;;6.05;4.38;;;;;;;;;;4995655;28;20072;-85
2022/05/10 05:21:13;;;;;;;5.20;3.55;;;;;;;;;;4978240;28;20068;-85
2022/05/10 05:23:40;;;;;;;6.20;4.00;;;;;;;;;;4997794;28;20042;-85
2022/05/10 05:26:08;;;;;;;7.20;5.15;;;;;;;;;;4994958;28;20042;-85
2022/05/10 05:28:36;;;;;;;9.32;5.32;;;;;;;;;;4990357;28;20041;-85
2022/05/10 05:31:03;;;;;;;7.75;5.05;;;;;;;;;;5013512;28;20060;-85
2022/05/10 05:33:31;;;;;;;9.38;5.80;;;;;;;;;;5016979;28;20043;-85
2022/05/10 05:35:59;;;;;;;9.90;5.53;;;;;;;;;;5012518;28;20053;-85
2022/05/10 05:38:27;;;;;;;8.32;5.95;;;;;;;;;;4998583;28;20053;-85
2022/05/10 05:40:54;;;;;;;7.68;5.47;;;;;;;;;;4989631;28;20140;-85
2022/05/10 05:43:22;;;;;;;10.15;5.28;;;;;;;;;;5000006;28;20044;-85
2022/05/10 05:45:53;;;;;;;8.68;5.65;;;;;;;;;;5001591;28;20049;-85
2022/05/10 05:48:21;;;;;;;10.23;5.90;;;;;;;;;;4988099;28;20128;-85
2022/05/10 05:50:48;;;;;;;8.02;5.00;;;;;;;;;;5018600;28;20053;-85
2022/05/10 05:53:20;;;;;;;7.47;5.10;;;;;;;;;;5018346;28;20129;-85
2022/05/10 05:55:48;;;;;;;8.27;5.63;;;;;;;;;;5004951;28;20064;-85
2022/05/10 05:58:16;;;;;;;9.40;5.22;;;;;;;;;;5027561;28;20037;-85
2022/05/10 06:00:44;;;;;;;7.90;4.80;;;;;;;;;;5013468;28;20053;-85
2022/05/10 06:03:11;;;;;;;7.47;4.88;;;;;;;;;;5030321;28;20052;-85
2022/05/10 06:05:39;;;;;;;6.15;4.47;;;;;;;;;;5012467;28;20108;-85
2022/05/10 06:08:08;;;;;;;9.00;5.10;;;;;;;;;;5004934;28;20410;-85
2022/05/10 06:10:38;;;;;;;10.15;5.38;;;;;;;;;;5035961;28;20390;-85
2022/05/10 06:13:05;;;;;;;8.85;5.50;;;;;;;;;;5019074;28;20038;-86
2022/05/10 06:15:33;;;;;;;8.45;5.30;;;;;;;;;;5000805;28;20056;-86
2022/05/10 06:18:03;;;;;;;7.30;4.78;;;;;;;;;;4985637;28;20136;-84
2022/05/10 06:20:31;;;;;;;7.70;5.25;;;;;;;;;;4985624;28;20498;-84
2022/05/10 06:22:59;;;;;;;7.47;5.20;;;;;;;;;;5017268;28;20045;-85
2022/05/10 06:25:27;;;;;;;11.02;5.38;;;;;;;;;;5017161;28;20565;-85
2022/05/10 06:27:58;;;;;;;9.13;5.95;;;;;;;;;;4998098;28;20034;-85
2022/05/10 06:30:25;;;;;;;10.85;6.45;;;;;;;;;;4985213;28;20045;-84
2022/05/10 06:32:55;;;;;;;8.80;5.63;;;;;;;;;;5000398;28;20033;-84
2022/05/10 06:35:22;;;;;;;11.30;6.03;;;;;;;;;;4999931;28;20076;-83
2022/05/10 06:40:38;;;;;;;8.68;5.63;;;;;;;;;;5033914;28;20041;-84
2022/05/10 06:43:05;;;;;;;9.38;6.20;;;;;;;;;;5001906;28;20057;-83
2022/05/10 06:45:35;;;;;;;8.85;5.40;;;;;;;;;;4996442;28;20060;-84
2022/05/10 06:48:03;;;;;;;8.20;5.30;;;;;;;;;;5000659;28;20065;-87
2022/05/10 06:50:31;;;;;;;11.13;6.05;;;;;;;;;;5001158;28;20819;-85
2022/05/10 06:52:59;;;;;;;9.15;5.47;;;;;;;;;;5016452;28;20060;-82
2022/05/10 06:55:27;;;;;;;7.85;5.22;;;;;;;;;;5016826;28;20037;-83
2022/05/10 06:57:55;;;;;;;9.30;5.55;;;;;;;;;;5000022;28;20049;-83
2022/05/10 07:00:30;;;;;;;8.23;5.68;;;;;;;;;;5001314;28;20045;-84
2022/05/10 07:03:01;;;;;;;8.13;5.40;;;;;;;;;;5000199;28;20061;-82
2022/05/10 07:05:29;;;;;;;7.82;4.95;;;;;;;;;;4986482;28;20149;-83
2022/05/10 07:07:57;;;;;;;7.63;5.05;;;;;;;;;;5016588;28;20072;-82
2022/05/10 07:10:24;;;;;;;8.35;5.32;;;;;;;;;;5002423;28;20390;-79
2022/05/10 07:12:53;;;;;;;7.70;4.95;;;;;;;;;;5000955;28;20069;-79
2022/05/10 07:15:21;;;;;;;9.57;5.03;;;;;;;;;;4981025;28;20049;-79
2022/05/10 07:17:54;;;;;;;7.03;4.88;;;;;;;;;;5000228;28;20060;-78
2022/05/10 07:20:22;;;;;;;7.35;4.65;;;;;;;;;;5006194;28;20054;-78
2022/05/10 07:22:49;;;;;;;7.97;4.30;;;;;;;;;;5015636;28;20041;-79
2022/05/10 07:25:19;;;;;;;5.30;3.65;;;;;;;;;;4999584;28;20490;-80
2022/05/10 07:27:46;;;;;;;7.25;4.28;;;;;;;;;;4999254;28;20049;-78
2022/05/10 07:30:14;;;;;;;6.68;4.00;;;;;;;;;;4999416;28;20049;-79
2022/05/10 07:32:42;;;;;;;6.20;4.15;;;;;;;;;;4999440;28;20049;-78
2022/05/10 07:35:10;;;;;;;9.90;4.55;;;;;;;;;;5014857;28;20037;-79
2022/05/10 07:37:38;;;;;;;6.15;3.85;;;;;;;;;;5014484;28;20052;-79
2022/05/10 07:40:07;;;;;;;5.85;3.90;;;;;;;;;;5014458;28;20064;-79
2022/05/10 07:42:37;;;;;;;5.53;3.42;;;;;;;;;;4998051;28;20157;-79
2022/05/10 07:45:06;;;;;;;5.57;3.65;;;;;;;;;;5014832;28;20061;-81
2022/05/10 07:47:34;;;;;;;5.00;3.17;;;;;;;;;;4999641;28;20468;-79
2022/05/10 07:50:01;;;;;;;5.30;3.65;;;;;;;;;;5001259;28;20049;-80
2022/05/10 07:52:28;;;;;;;4.97;3.13;;;;;;;;;;5020147;28;20049;-83
2022/05/10 07:54:56;;;;;;;5.13;3.67;;;;;;;;;;5071061;28;20059;-82
2022/05/10 07:57:24;;;;;;;5.68;3.55;;;;;;;;;;5033540;28;20064;-82
2022/05/10 07:59:51;;;;;;;7.22;4.68;;;;;;;;;;4998681;28;20523;-83
2022/05/10 08:02:20;;;;;;;5.85;4.15;;;;;;;;;;4984480;28;20045;-83
2022/05/10 08:04:47;;;;;;;4.40;3.35;;;;;;;;;;5015736;28;20041;-82
2022/05/10 08:07:15;;;;;;;6.28;3.20;;;;;;;;;;4998517;28;20041;-83
2022/05/10 08:09:42;;;;;;;6.82;4.05;;;;;;;;;;4996376;28;20406;-83
2022/05/10 08:12:10;;;;;;;6.13;4.07;;;;;;;;;;5000095;28;20045;-83
2022/05/10 08:14:37;;;;;;;4.68;3.50;;;;;;;;;;4998445;28;20140;-81
2022/05/10 08:17:04;;;;;;;7.00;4.18;;;;;;;;;;5014321;28;20049;-82
2022/05/10 08:19:32;;;;;;;4.90;4.13;;;;;;;;;;5030471;28;20490;-83
2022/05/10 08:21:59;;;;;;;5.70;3.80;;;;;;;;;;4997464;28;20073;-83
2022/05/10 08:24:27;;;;;;;6.30;4.60;;;;;;;;;;4994771;28;20045;-83
2022/05/10 08:26:55;;;;;;;5.95;4.50;;;;;;;;;;4997059;28;20042;-83
2022/05/10 08:29:22;;;;;;;5.70;4.70;;;;;;;;;;5013974;28;20438;-84
2022/05/10 08:31:49;;;;;;;4.80;3.67;;;;;;;;;;5032131;28;20045;-84
2022/05/10 08:34:19;;;;;;;7.28;3.60;;;;;;;;;;4996394;28;20100;-83
2022/05/10 08:36:52;;;;;;;4.18;3.22;;;;;;;;;;5014738;28;20107;-83
2022/05/10 08:39:19;;;;;;;4.03;3.05;;;;;;;;;;5030387;28;20072;-82
2022/05/10 08:41:55;;;;;;;4.60;2.53;;;;;;;;;;4997903;28;20042;-82
2022/05/10 08:44:24;;;;;;;4.10;3.28;;;;;;;;;;4994760;28;20502;-81
2022/05/10 08:46:53;;;;;;;5.15;3.50;;;;;;;;;;5013934;28;20042;-82
2022/05/10 08:49:34;;;;;;;5.47;3.08;;;;;;;;;;4998835;28;20050;-84
2022/05/10 08:52:06;;;;;;;3.97;3.00;;;;;;;;;;4998177;28;20041;-83
2022/05/10 08:54:35;;;;;;;4.10;2.75;;;;;;;;;;5013323;28;20048;-82
2022/05/10 08:57:16;;;;;;;5.88;3.13;;;;;;;;;;5013402;28;20507;-83
2022/05/10 09:00:03;;;;;;;4.95;3.22;;;;;;;;;;5022038;28;20056;-82
2022/05/10 09:02:44;;;;;;;4.18;2.47;;;;;;;;;;5011062;28;20049;-82
2022/05/10 09:05:17;;;;;;;6.03;3.40;;;;;;;;;;5013889;28;20489;-84
2022/05/10 09:08:04;;;;;;;3.97;2.47;;;;;;;;;;5014475;28;20053;-84
2022/05/10 09:10:37;;;;;;;3.45;2.47;;;;;;;;;;5014927;28;20456;-84
2022/05/10 09:13:07;;;;;;;5.32;2.83;;;;;;;;;;5018223;28;20520;-85
2022/05/10 09:15:35;;;;;;;4.63;2.28;;;;;;;;;;4988149;28;20058;-83
2022/05/10 09:18:15;;;;;;;3.38;2.15;;;;;;;;;;5018296;28;20045;-84
2022/05/10 09:20:48;;;;;;;3.67;2.45;;;;;;;;;;5017879;28;20104;-85
2022/05/10 09:23:22;;;;;;;5.85;2.30;;;;;;;;;;5018126;28;20042;-83
2022/05/10 09:25:49;;;;;;;5.93;2.50;;;;;;;;;;4998916;28;20045;-85
2022/05/10 09:28:23;;;;;;;4.38;2.25;;;;;;;;;;5003996;28;20144;-83
2022/05/10 09:36:28;;;;;;;2.63;1.40;;;;;;;;;;5003488;28;20049;-82
2022/05/10 09:38:55;;;;;;;;;;;;;;;;;;5018290;28;20053;-83
2022/05/10 09:41:37;;;;;;;2.47;1.55;;;;;;;;;;4998052;28;20019;-82
2022/05/10 09:44:19;;;;;;;2.42;1.60;;;;;;;;;;5001212;28;20068;-84
2022/05/10 09:46:47;;;;;;;2.42;1.55;;;;;;;;;;4992035;28;20049;-84
2022/05/10 09:49:31;;;;;;;2.83;1.70;;;;;;;;;;5017046;28;20041;-84
2022/05/10 09:52:02;;;;;;;2.70;1.55;;;;;;;;;;5007798;28;20104;-84
2022/05/10 09:54:39;;;;;;;4.03;2.05;;;;;;;;;;5017540;28;20064;-88
2022/05/10 09:57:13;;;;;;;3.35;1.60;;;;;;;;;;5007775;28;20050;-85
2022/05/10 09:59:45;;;;;;;5.18;1.98;;;;;;;;;;5017454;28;20045;-85
2022/05/10 10:02:25;;;;;;;3.88;1.75;;;;;;;;;;5017427;28;20502;-85
2022/05/10 10:04:52;;;;;;;3.78;1.98;;;;;;;;;;5017666;28;20140;-85
2022/05/10 10:07:22;;;;;;;4.15;2.55;;;;;;;;;;4999039;28;20037;-84
2022/05/10 10:09:51;;;;;;;4.05;2.05;;;;;;;;;;5008125;28;20049;-84
2022/05/10 10:12:38;;;;;;;2.25;1.40;;;;;;;;;;5015265;28;20099;-85
2022/05/10 10:15:26;;;;;;;3.05;2.00;;;;;;;;;;5017233;28;20048;-84
2022/05/10 10:18:06;;;;;;;2.50;1.60;;;;;;;;;;5001028;28;20153;-83
2022/05/10 10:20:40;;;;;;;5.03;2.08;;;;;;;;;;5002937;28;20056;-81
2022/05/10 10:23:25;;;;;;;2.97;1.80;;;;;;;;;;5016106;28;20512;-82
2022/05/10 10:25:56;;;;;;;2.92;1.40;;;;;;;;;;5016217;28;20125;-82
2022/05/10 10:28:29;;;;;;;2.88;1.73;;;;;;;;;;5000043;28;20045;-82
2022/05/10 10:31:17;;;;;;;2.85;1.60;;;;;;;;;;5017075;28;20481;-84
2022/05/10 10:34:07;;;;;;;3.97;2.00;;;;;;;;;;5000010;28;20045;-85
2022/05/10 10:36:42;;;;;;;2.92;2.20;;;;;;;;;;5009440;28;20065;-84
2022/05/10 10:39:22;;;;;;;3.30;2.00;;;;;;;;;;5016543;28;20046;-84
2022/05/10 10:41:52;;;;;;;4.07;2.22;;;;;;;;;;5008761;28;20050;-85
2022/05/10 10:44:34;;;;;;;3.40;2.20;;;;;;;;;;5010982;28;20053;-84
2022/05/10 10:47:20;;;;;;;6.15;2.30;;;;;;;;;;4995052;28;20409;-82
2022/05/10 10:50:03;;;;;;;4.00;2.53;;;;;;;;;;5002912;28;20052;-85
2022/05/10 10:52:32;;;;;;;3.63;2.25;;;;;;;;;;5005694;28;20042;-84
2022/05/10 10:55:00;;;;;;;2.80;1.80;;;;;;;;;;4998080;28;20448;-84
2022/05/10 10:57:35;;;;;;;3.25;1.90;;;;;;;;;;5018329;28;20050;-85
2022/05/10 11:00:15;;;;;;;3.17;2.00;;;;;;;;;;5021344;28;20053;-84
2022/05/10 11:02:48;;;;;;;4.07;2.40;;;;;;;;;;5038070;28;20060;-85
2022/05/10 11:05:23;;;;;;;2.28;1.58;;;;;;;;;;5016980;28;20104;-84
2022/05/10 11:07:58;;;;;;;3.40;1.80;;;;;;;;;;4989404;28;20555;-85
2022/05/10 11:10:45;;;;;;;4.10;2.05;;;;;;;;;;5000200;28;20041;-86
2022/05/10 11:13:31;;;;;;;3.17;1.90;;;;;;;;;;5015589;28;20041;-84
2022/05/10 11:16:04;;;;;;;3.92;1.90;;;;;;;;;;4998939;28;20045;-85
2022/05/10 11:18:51;;;;;;;3.33;2.08;;;;;;;;;;5009116;28;20413;-84
2022/05/10 11:21:23;;;;;;;3.90;1.95;;;;;;;;;;4996508;28;20379;-84
2022/05/10 11:24:13;;;;;;;3.20;1.75;;;;;;;;;;4994598;28;20045;-84
2022/05/10 11:26:41;;;;;;;4.75;2.08;;;;;;;;;;5016273;28;20104;-84
2022/05/10 11:29:14;;;;;;;4.63;1.90;;;;;;;;;;4999491;28;20045;-84
2022/05/10 11:31:45;;;;;;;3.35;1.85;;;;;;;;;;4993396;28;20350;-84
2022/05/10 11:34:31;;;;;;;3.63;2.08;;;;;;;;;;4999396;28;20041;-85
2022/05/10 11:37:02;;;;;;;6.72;3.10;;;;;;;;;;5000162;28;20045;-86
2022/05/10 11:39:50;;;;;;;4.05;2.40;;;;;;;;;;5000089;28;20045;-85
2022/05/10 11:42:25;;;;;;;4.15;2.22;;;;;;;;;;5015569;28;20048;-84
2022/05/10 11:45:11;;;;;;;3.28;2.35;;;;;;;;;;5015136;28;20569;-85
2022/05/10 11:47:56;;;;;;;3.70;2.05;;;;;;;;;;4991735;28;20041;-84
2022/05/10 11:51:38;;;;;;;3.88;2.35;;;;;;;;;;5015752;28;20045;-85
2022/05/10 11:53:33;;;;;;;3.97;2.40;;;;;;;;;;5015167;28;20042;-86
2022/05/10 11:56:01;;;;;;;3.60;2.60;;;;;;;;;;4999188;28;20056;-84
2022/05/10 11:58:29;;;;;;;3.38;2.22;;;;;;;;;;4999219;28;20091;-84
2022/05/10 12:00:58;;;;;;;3.67;1.88;;;;;;;;;;4991243;28;20128;-84
2022/05/10 12:03:29;;;;;;;;;;;;;;;;;;5010310;28;20510;-84
2022/05/10 12:06:18;;;;;;;3.38;2.15;;;;;;;;;;4995527;28;19921;-85
2022/05/10 12:08:49;;;;;;;4.80;2.28;;;;;;;;;;4998643;28;20406;-84
2022/05/10 12:11:28;;;;;;;5.03;2.60;;;;;;;;;;5048218;28;20037;-83
2022/05/10 12:22:16;;;;;;;3.05;2.13;;;;;;;;;;5032202;28;20042;-86
2022/05/10 12:24:48;;;;;;;3.88;2.22;;;;;;;;;;5047762;28;20041;-84
2022/05/10 12:27:18;;;;;;;4.30;2.17;;;;;;;;;;4998587;28;20053;-82
2022/05/10 12:29:48;;;;;;;3.47;2.10;;;;;;;;;;4992592;28;20048;-82
2022/05/10 12:32:29;;;;;;;;;;;;;;;;;;;;;
2022/05/10 12:35:41;;;;;;;3.17;2.22;;;;;;;;;;5004951;28;20485;-90
2022/05/10 12:38:35;;;;;;;4.45;2.60;;;;;;;;;;5030895;28;20041;-89
2022/05/10 12:41:09;;;;;;;4.68;2.85;;;;;;;;;;4998653;28;20474;-85
2022/05/10 12:43:42;;;;;;;3.60;2.30;;;;;;;;;;5014008;28;20061;-85
2022/05/10 12:46:11;;;;;;;3.83;1.90;;;;;;;;;;5009799;28;20056;-89
2022/05/10 12:48:40;;;;;;;5.72;2.22;;;;;;;;;;5011879;28;20045;-85
2022/05/10 12:51:17;;;;;;;5.18;2.35;;;;;;;;;;5001694;28;20065;-83
2022/05/10 12:53:53;;;;;;;4.63;1.95;;;;;;;;;;5034308;28;20138;-83
2022/05/10 12:56:26;;;;;;;3.22;1.88;;;;;;;;;;5002364;28;20529;-83
2022/05/10 12:59:06;;;;;;;3.92;2.53;;;;;;;;;;5018510;28;20048;-83
2022/05/10 13:01:35;;;;;;;4.38;2.58;;;;;;;;;;5002084;28;20453;-82
2022/05/10 13:04:09;;;;;;;5.10;2.22;;;;;;;;;;5018993;28;20061;-85
2022/05/10 13:06:55;;;;;;;3.47;2.30;;;;;;;;;;5034567;28;20045;-83
2022/05/10 13:09:31;;;;;;;3.45;2.38;;;;;;;;;;5006195;28;20033;-84
2022/05/10 13:12:07;;;;;;;3.28;2.03;;;;;;;;;;5018227;28;20045;-84
2022/05/10 13:14:37;;;;;;;3.95;2.63;;;;;;;;;;5018853;28;20045;-83
2022/05/10 13:17:05;;;;;;;3.22;1.88;;;;;;;;;;5018469;28;20417;-84
2022/05/10 13:19:37;;;;;;;2.78;1.60;;;;;;;;;;5001925;28;20134;-85
2022/05/10 13:22:08;;;;;;;2.90;1.73;;;;;;;;;;5001853;28;20453;-83
2022/05/10 13:24:38;;;;;;;3.60;2.07;;;;;;;;;;5036051;28;20029;-88
2022/05/10 13:27:06;;;;;;;3.78;2.05;;;;;;;;;;5001577;28;20080;-88
2022/05/10 13:29:51;;;;;;;3.92;2.35;;;;;;;;;;5018544;28;20033;-88
2022/05/10 13:32:31;;;;;;;4.70;2.10;;;;;;;;;;5037295;28;20109;-82
2022/05/10 13:35:04;;;;;;;3.88;1.88;;;;;;;;;;5012999;28;20044;-84
2022/05/10 13:37:35;;;;;;;4.78;2.13;;;;;;;;;;5034611;28;20045;-85
2022/05/10 13:40:12;;;;;;;2.63;1.83;;;;;;;;;;5017418;28;20132;-83
2022/05/10 13:42:41;;;;;;;8.48;2.92;;;;;;;;;;5001452;28;20050;-81
2022/05/10 13:45:09;;;;;;;3.97;2.60;;;;;;;;;;5000838;28;20108;-83
2022/05/10 13:47:39;;;;;;;4.22;3.05;;;;;;;;;;5017941;28;20080;-86
2022/05/10 13:50:07;;;;;;;4.80;2.63;;;;;;;;;;5001432;28;20038;-80
2022/05/10 13:52:38;;;;;;;3.47;2.55;;;;;;;;;;4998132;28;20046;-78
2022/05/10 13:55:08;;;;;;;4.63;2.35;;;;;;;;;;5001276;28;20904;-82
2022/05/10 13:57:36;;;;;;;4.82;2.58;;;;;;;;;;4992221;28;20406;-80
2022/05/10 14:00:15;;;;;;;4.10;2.42;;;;;;;;;;4996263;28;20049;-85
2022/05/10 14:02:42;;;;;;;3.45;2.40;;;;;;;;;;5018007;28;20494;-79
2022/05/10 14:05:16;;;;;;;4.55;2.17;;;;;;;;;;5001381;28;20045;-82
2022/05/10 14:07:47;;;;;;;3.05;1.90;;;;;;;;;;5000455;28;20405;-80
2022/05/10 14:10:16;;;;;;;4.60;2.00;;;;;;;;;;5017260;28;20041;-81
2022/05/10 14:12:57;;;;;;;4.63;1.98;;;;;;;;;;5017516;28;20516;-83
2022/05/10 14:15:35;;;;;;;3.28;2.03;;;;;;;;;;5033394;28;20151;-83
2022/05/10 14:18:23;;;;;;;7.18;3.65;;;;;;;;;;5022158;28;20091;-80
2022/05/10 14:20:52;;;;;;;4.90;2.88;;;;;;;;;;5000714;28;20041;-84
2022/05/10 14:23:20;;;;;;;5.60;2.35;;;;;;;;;;5001422;28;20084;-84
2022/05/10 14:25:51;;;;;;;4.50;2.40;;;;;;;;;;5001213;28;20056;-89
2022/05/10 14:28:43;;;;;;;4.82;2.45;;;;;;;;;;5004632;28;20136;-90
2022/05/10 14:31:30;;;;;;;5.00;2.58;;;;;;;;;;5000304;28;20508;-86
2022/05/10 14:34:02;;;;;;;4.68;2.80;;;;;;;;;;5016362;28;20505;-81
2022/05/10 14:36:41;;;;;;;3.22;1.98;;;;;;;;;;5014542;28;21167;-83
2022/05/10 14:39:21;;;;;;;4.35;2.55;;;;;;;;;;5007522;28;20041;-83
2022/05/10 14:41:48;;;;;;;2.85;1.67;;;;;;;;;;4999994;28;20045;-83
2022/05/10 14:44:15;;;;;;;2.92;1.70;;;;;;;;;;4996715;28;20153;-80
2022/05/10 14:46:53;;;;;;;6.88;2.90;;;;;;;;;;5012720;28;20060;-82
2022/05/10 14:49:47;;;;;;;3.97;2.50;;;;;;;;;;4983846;28;20156;-83
2022/05/10 14:52:33;;;;;;;3.78;2.35;;;;;;;;;;5012548;28;20065;-84
2022/05/10 14:55:01;;;;;;;5.75;3.05;;;;;;;;;;5012846;28;20057;-83
2022/05/10 14:57:36;;;;;;;6.32;3.47;;;;;;;;;;4997139;28;20045;-84
2022/05/10 15:00:27;;;;;;;4.85;3.50;;;;;;;;;;5013449;28;20510;-84
2022/05/10 15:03:13;;;;;;;5.75;3.42;;;;;;;;;;4996271;28;20077;-85
2022/05/10 15:05:43;;;;;;;4.00;2.30;;;;;;;;;;4996652;28;20124;-82
2022/05/10 15:08:11;;;;;;;4.95;2.55;;;;;;;;;;5012385;28;20117;-83
2022/05/10 15:10:41;;;;;;;5.53;2.78;;;;;;;;;;5012982;28;20110;-87
2022/05/10 15:13:09;;;;;;;7.22;2.60;;;;;;;;;;4996338;28;20069;-87
2022/05/10 15:15:46;;;;;;;5.90;3.47;;;;;;;;;;4996616;28;20057;-83
2022/05/10 15:21:01;;;;;;;3.63;2.13;;;;;;;;;;5012754;28;20056;-85
2022/05/10 15:23:29;;;;;;;5.50;2.65;;;;;;;;;;4996338;28;20477;-80
2022/05/10 15:25:59;;;;;;;4.35;1.73;;;;;;;;;;4996801;28;20072;-86
2022/05/10 15:28:29;;;;;;;4.00;2.60;;;;;;;;;;4996795;28;20046;-83
2022/05/10 15:30:57;;;;;;;3.60;2.10;;;;;;;;;;4996721;28;20069;-86
2022/05/10 15:33:28;;;;;;;4.70;2.40;;;;;;;;;;4996786;28;20030;-81
2022/05/10 15:35:56;;;;;;;5.07;2.50;;;;;;;;;;5012169;28;20053;-84
2022/05/10 15:38:26;;;;;;;4.65;2.83;;;;;;;;;;4996198;28;20050;-85
2022/05/10 15:40:53;;;;;;;5.47;2.03;;;;;;;;;;4995616;28;20057;-84